createdAt,value
2023-04-30T00:02:24.929Z,20.74
2023-04-30T00:04:51.503Z,20.74
2023-04-30T00:07:18.213Z,20.73
2023-04-30T00:09:47.535Z,20.74
2023-04-30T00:12:14.165Z,20.73
2023-04-30T00:14:40.768Z,20.73
2023-04-30T00:17:07.490Z,20.74
2023-04-30T00:19:34.140Z,20.73
2023-04-30T00:22:05.502Z,20.72
2023-04-30T00:24:32.272Z,20.72
2023-04-30T00:26:59.305Z,20.73
2023-04-30T00:29:25.951Z,20.72
2023-04-30T00:31:52.559Z,20.72
2023-04-30T00:34:19.210Z,20.71
2023-04-30T00:36:45.830Z,20.70
2023-04-30T00:39:12.594Z,20.70
2023-04-30T00:41:39.190Z,20.70
2023-04-30T00:44:06.629Z,20.70
2023-04-30T00:46:33.301Z,20.70
2023-04-30T00:49:02.267Z,20.68
2023-04-30T00:51:29.392Z,20.69
2023-04-30T00:53:56.034Z,20.68
2023-04-30T00:56:24.077Z,20.68
2023-04-30T00:58:51.513Z,20.68
2023-04-30T01:01:18.316Z,20.68
2023-04-30T01:03:46.450Z,20.66
2023-04-30T01:06:13.117Z,20.67
2023-04-30T01:08:41.156Z,20.67
2023-04-30T01:11:26.063Z,20.66
2023-04-30T01:14:04.326Z,20.66
2023-04-30T01:16:33.711Z,20.65
2023-04-30T01:19:19.454Z,20.65
2023-04-30T01:21:46.207Z,20.64
2023-04-30T01:24:39.433Z,20.63
2023-04-30T01:27:31.918Z,20.64
2023-04-30T01:29:58.662Z,20.64
2023-04-30T01:32:25.380Z,20.63
2023-04-30T01:34:52.184Z,20.62
2023-04-30T01:37:30.956Z,20.63
2023-04-30T01:40:18.464Z,20.62
2023-04-30T01:43:05.644Z,20.61
2023-04-30T01:45:44.423Z,20.60
2023-04-30T01:48:24.108Z,20.60
2023-04-30T01:51:06.580Z,20.60
2023-04-30T01:53:37.844Z,20.60
2023-04-30T01:56:06.046Z,20.59
2023-04-30T01:58:32.794Z,20.59
2023-04-30T02:01:01.740Z,20.59
2023-04-30T02:03:31.946Z,20.58
2023-04-30T02:05:59.287Z,20.58
2023-04-30T02:08:25.984Z,20.57
2023-04-30T02:10:52.619Z,20.57
2023-04-30T02:13:19.242Z,20.57
2023-04-30T02:15:45.870Z,20.57
2023-04-30T02:18:12.576Z,20.56
2023-04-30T02:20:41.722Z,20.55
2023-04-30T02:23:09.868Z,20.55
2023-04-30T02:25:38.700Z,20.55
2023-04-30T02:28:05.403Z,20.55
2023-04-30T02:30:32.025Z,20.56
2023-04-30T02:32:58.639Z,20.55
2023-04-30T02:35:28.513Z,20.55
2023-04-30T02:37:56.602Z,20.54
2023-04-30T02:40:27.668Z,20.54
2023-04-30T02:42:56.759Z,20.55
2023-04-30T02:45:23.403Z,20.54
2023-04-30T02:47:52.377Z,20.53
2023-04-30T02:50:19.181Z,20.53
2023-04-30T02:52:48.833Z,20.52
2023-04-30T02:55:15.561Z,20.53
2023-04-30T02:57:42.227Z,20.52
2023-04-30T03:00:09.702Z,20.52
2023-04-30T03:02:36.486Z,20.51
2023-04-30T03:05:04.234Z,20.51
2023-04-30T03:07:30.869Z,20.51
2023-04-30T03:09:57.471Z,20.51
2023-04-30T03:12:24.242Z,20.49
2023-04-30T03:14:53.377Z,20.51
2023-04-30T03:17:23.643Z,20.49
2023-04-30T03:19:51.163Z,20.50
2023-04-30T03:22:23.674Z,20.48
2023-04-30T03:24:50.317Z,20.48
2023-04-30T03:27:17.114Z,20.49
2023-04-30T03:29:43.715Z,20.48
2023-04-30T03:32:12.824Z,20.48
2023-04-30T03:34:39.599Z,20.48
2023-04-30T03:37:06.265Z,20.47
2023-04-30T03:39:32.862Z,20.47
2023-04-30T03:41:59.529Z,20.46
2023-04-30T03:44:26.381Z,20.45
2023-04-30T03:46:53.048Z,20.46
2023-04-30T03:49:19.764Z,20.46
2023-04-30T03:51:46.974Z,20.45
2023-04-30T03:54:13.642Z,20.44
2023-04-30T03:56:44.802Z,20.44
2023-04-30T03:59:11.423Z,20.44
2023-04-30T04:01:39.268Z,20.43
2023-04-30T04:04:07.381Z,20.43
2023-04-30T04:06:34.182Z,20.44
2023-04-30T04:09:00.820Z,20.44
2023-04-30T04:11:27.481Z,20.44
2023-04-30T04:13:54.077Z,20.43
2023-04-30T04:16:20.776Z,20.43
2023-04-30T04:18:47.527Z,20.43
2023-04-30T04:21:14.151Z,20.43
2023-04-30T04:23:41.967Z,20.43
2023-04-30T04:26:10.791Z,20.42
2023-04-30T04:28:38.251Z,20.42
2023-04-30T04:31:05.159Z,20.42
2023-04-30T04:33:33.868Z,20.42
2023-04-30T04:36:00.787Z,20.42
2023-04-30T04:38:27.425Z,20.43
2023-04-30T04:40:54.588Z,20.42
2023-04-30T04:43:21.875Z,20.43
2023-04-30T04:45:48.591Z,20.43
2023-04-30T04:48:15.453Z,20.43
2023-04-30T04:50:42.063Z,20.43
2023-04-30T04:53:08.641Z,20.43
2023-04-30T04:55:37.562Z,20.43
2023-04-30T04:58:04.155Z,20.45
2023-04-30T05:00:30.816Z,20.46
2023-04-30T05:02:58.429Z,20.55
2023-04-30T05:05:25.228Z,20.66
2023-04-30T05:07:54.998Z,20.80
2023-04-30T05:10:21.884Z,20.93
2023-04-30T05:12:48.576Z,21.07
2023-04-30T05:15:15.268Z,21.18
2023-04-30T05:17:42.081Z,21.32
2023-04-30T05:20:11.986Z,21.52
2023-04-30T05:22:38.990Z,21.68
2023-04-30T05:25:06.091Z,21.83
2023-04-30T05:27:34.840Z,21.93
2023-04-30T05:30:07.162Z,22.03
2023-04-30T05:32:34.156Z,22.09
2023-04-30T05:35:03.335Z,22.13
2023-04-30T05:37:35.162Z,22.17
2023-04-30T05:40:01.781Z,22.20
2023-04-30T05:42:28.457Z,22.22
2023-04-30T05:44:55.662Z,22.24
2023-04-30T05:47:23.509Z,22.26
2023-04-30T05:49:51.350Z,22.28
2023-04-30T05:52:17.998Z,22.30
2023-04-30T05:54:44.706Z,22.31
2023-04-30T05:57:11.448Z,22.31
2023-04-30T05:59:38.062Z,22.34
2023-04-30T06:02:04.768Z,22.34
2023-04-30T06:04:31.736Z,22.35
2023-04-30T06:06:58.351Z,22.36
2023-04-30T06:09:25.092Z,22.36
2023-04-30T06:11:52.148Z,22.37
2023-04-30T06:14:19.045Z,22.37
2023-04-30T06:16:48.892Z,22.40
2023-04-30T06:19:15.629Z,22.40
2023-04-30T06:21:43.991Z,22.42
2023-04-30T06:24:10.708Z,22.43
2023-04-30T06:26:38.965Z,22.44
2023-04-30T06:29:07.194Z,22.45
2023-04-30T06:31:36.976Z,22.45
2023-04-30T06:34:06.182Z,22.46
2023-04-30T06:36:35.121Z,22.47
2023-04-30T06:39:01.753Z,22.48
2023-04-30T06:41:28.461Z,22.51
2023-04-30T06:43:55.223Z,22.51
2023-04-30T06:46:22.024Z,22.52
2023-04-30T06:48:48.801Z,22.53
2023-04-30T06:51:15.447Z,22.53
2023-04-30T06:53:42.384Z,22.54
2023-04-30T06:56:09.019Z,22.56
2023-04-30T06:58:35.714Z,22.57
2023-04-30T07:01:02.444Z,22.57
2023-04-30T07:03:29.379Z,22.59
2023-04-30T07:05:56.238Z,22.60
2023-04-30T07:08:22.833Z,22.61
2023-04-30T07:10:49.507Z,22.63
2023-04-30T07:13:16.619Z,22.64
2023-04-30T07:15:43.316Z,22.65
2023-04-30T07:18:12.557Z,22.66
2023-04-30T07:20:39.262Z,22.67
2023-04-30T07:23:05.848Z,22.68
2023-04-30T07:25:32.626Z,22.71
2023-04-30T07:27:59.253Z,22.71
2023-04-30T07:30:26.386Z,22.72
2023-04-30T07:32:53.224Z,22.75
2023-04-30T07:35:20.012Z,22.76
2023-04-30T07:37:46.665Z,22.78
2023-04-30T07:40:19.315Z,22.80
2023-04-30T07:42:55.158Z,22.76
2023-04-30T07:45:21.781Z,22.71
2023-04-30T07:47:48.860Z,22.67
2023-04-30T07:50:16.357Z,22.65
2023-04-30T07:52:45.381Z,22.64
2023-04-30T07:55:12.054Z,22.61
2023-04-30T07:57:38.696Z,22.54
2023-04-30T08:00:06.104Z,22.52
2023-04-30T08:02:33.282Z,22.46
2023-04-30T08:05:00.033Z,22.45
2023-04-30T08:07:26.777Z,22.45
2023-04-30T08:09:53.636Z,22.43
2023-04-30T08:12:20.401Z,22.44
2023-04-30T08:14:49.617Z,22.52
2023-04-30T08:17:16.204Z,22.54
2023-04-30T08:19:42.887Z,22.55
2023-04-30T08:22:11.797Z,22.52
2023-04-30T08:24:40.577Z,22.44
2023-04-30T08:27:07.306Z,22.46
2023-04-30T08:29:34.060Z,22.45
2023-04-30T08:32:02.925Z,22.42
2023-04-30T08:34:29.611Z,22.38
2023-04-30T08:36:56.572Z,22.46
2023-04-30T08:39:23.169Z,22.47
2023-04-30T08:41:56.197Z,22.54
2023-04-30T08:44:24.053Z,22.52
2023-04-30T08:46:54.303Z,22.45
2023-04-30T08:49:24.948Z,22.39
2023-04-30T08:51:52.123Z,22.36
2023-04-30T08:54:18.916Z,22.39
2023-04-30T08:56:46.163Z,22.39
2023-04-30T08:59:13.283Z,22.45
2023-04-30T09:01:42.391Z,22.49
2023-04-30T09:04:09.099Z,22.47
2023-04-30T09:06:35.847Z,22.50
2023-04-30T09:09:13.286Z,22.48
2023-04-30T09:11:39.965Z,22.49
2023-04-30T09:14:06.659Z,22.48
2023-04-30T09:16:45.549Z,22.45
2023-04-30T09:19:28.532Z,22.38
2023-04-30T09:21:57.301Z,22.31
2023-04-30T09:24:24.204Z,22.30
2023-04-30T09:26:51.183Z,22.26
2023-04-30T09:29:17.837Z,22.24
2023-04-30T09:31:47.974Z,22.23
2023-04-30T09:34:15.297Z,22.21
2023-04-30T09:36:57.388Z,22.18
2023-04-30T09:39:24.067Z,22.16
2023-04-30T09:41:53.467Z,22.12
2023-04-30T09:44:33.094Z,22.11
2023-04-30T09:47:00.201Z,22.07
2023-04-30T09:49:27.536Z,22.03
2023-04-30T09:52:01.061Z,21.95
2023-04-30T09:54:29.592Z,21.94
2023-04-30T09:56:58.250Z,21.94
2023-04-30T09:59:35.511Z,21.91
2023-04-30T10:02:03.385Z,21.94
2023-04-30T10:04:37.733Z,21.95
2023-04-30T10:07:18.150Z,22.02
2023-04-30T10:10:21.607Z,22.08
2023-04-30T10:12:52.319Z,22.13
2023-04-30T10:15:26.497Z,22.18
2023-04-30T10:18:05.614Z,22.19
2023-04-30T10:20:35.088Z,22.20
2023-04-30T10:23:01.822Z,22.19
2023-04-30T10:25:34.853Z,22.20
2023-04-30T10:28:05.038Z,22.22
2023-04-30T10:30:33.343Z,22.24
2023-04-30T10:33:06.171Z,22.26
2023-04-30T10:35:36.402Z,22.27
2023-04-30T10:38:16.834Z,22.26
2023-04-30T10:40:46.741Z,22.25
2023-04-30T10:43:13.418Z,22.22
2023-04-30T10:45:43.745Z,22.21
2023-04-30T10:48:10.674Z,22.20
2023-04-30T10:50:46.261Z,22.18
2023-04-30T10:53:20.166Z,22.17
2023-04-30T10:55:49.088Z,22.14
2023-04-30T10:58:30.866Z,22.13
2023-04-30T11:01:14.771Z,22.12
2023-04-30T11:03:43.218Z,22.10
2023-04-30T11:06:13.553Z,22.09
2023-04-30T11:08:43.769Z,22.09
2023-04-30T11:11:11.194Z,22.06
2023-04-30T11:13:46.979Z,22.05
2023-04-30T11:16:13.639Z,22.04
2023-04-30T11:18:46.753Z,22.02
2023-04-30T11:21:13.678Z,22.04
2023-04-30T11:23:44.687Z,22.04
2023-04-30T11:26:11.399Z,22.04
2023-04-30T11:28:38.217Z,22.03
2023-04-30T11:31:05.117Z,22.03
2023-04-30T11:33:32.412Z,22.03
2023-04-30T11:36:00.336Z,22.02
2023-04-30T11:38:38.871Z,22.01
2023-04-30T11:41:05.653Z,22.01
2023-04-30T11:43:32.968Z,22.00
2023-04-30T11:46:18.100Z,21.97
2023-04-30T11:48:45.718Z,21.96
2023-04-30T11:51:23.967Z,21.95
2023-04-30T11:53:53.724Z,21.94
2023-04-30T11:56:21.388Z,21.93
2023-04-30T11:58:50.713Z,21.92
2023-04-30T12:01:17.638Z,21.91
2023-04-30T12:03:46.395Z,21.91
2023-04-30T12:06:21.725Z,21.89
2023-04-30T12:08:51.208Z,21.89
2023-04-30T12:11:22.297Z,21.88
2023-04-30T12:13:55.665Z,21.90
2023-04-30T12:16:24.467Z,21.89
2023-04-30T12:18:52.869Z,21.86
2023-04-30T12:21:21.572Z,21.85
2023-04-30T12:23:51.556Z,21.86
2023-04-30T12:26:18.288Z,21.85
2023-04-30T12:28:49.351Z,21.83
2023-04-30T12:31:19.093Z,21.83
2023-04-30T12:33:54.044Z,21.83
2023-04-30T12:36:22.689Z,21.81
2023-04-30T12:38:49.272Z,21.82
2023-04-30T12:41:17.424Z,21.81
2023-04-30T12:43:44.325Z,21.80
2023-04-30T12:46:11.327Z,21.81
2023-04-30T12:48:47.503Z,21.79
2023-04-30T12:51:19.622Z,21.79
2023-04-30T12:53:50.801Z,21.80
2023-04-30T12:56:17.579Z,21.78
2023-04-30T12:58:51.442Z,21.77
2023-04-30T13:01:23.046Z,21.79
2023-04-30T13:03:50.282Z,21.77
2023-04-30T13:06:19.081Z,21.76
2023-04-30T13:08:57.846Z,21.76
2023-04-30T13:11:26.643Z,21.75
2023-04-30T13:13:55.775Z,21.74
2023-04-30T13:16:26.702Z,21.73
2023-04-30T13:18:53.578Z,21.73
2023-04-30T13:21:21.138Z,21.72
2023-04-30T13:23:52.654Z,21.72
2023-04-30T13:26:21.346Z,21.71
2023-04-30T13:28:48.114Z,21.71
2023-04-30T13:31:14.754Z,21.70
2023-04-30T13:33:41.641Z,21.69
2023-04-30T13:36:09.661Z,21.69
2023-04-30T13:38:36.255Z,21.69
2023-04-30T13:41:04.379Z,21.69
2023-04-30T13:43:31.376Z,21.68
2023-04-30T13:46:01.905Z,21.67
2023-04-30T13:48:28.550Z,21.67
2023-04-30T13:50:55.258Z,21.66
2023-04-30T13:53:21.835Z,21.66
2023-04-30T13:55:48.447Z,21.65
2023-04-30T13:58:15.629Z,21.65
2023-04-30T14:00:42.572Z,21.65
2023-04-30T14:03:09.812Z,21.65
2023-04-30T14:05:36.730Z,21.65
2023-04-30T14:08:04.115Z,21.64
2023-04-30T14:10:30.808Z,21.64
2023-04-30T14:12:57.409Z,21.64
2023-04-30T14:15:24.500Z,21.63
2023-04-30T14:17:51.879Z,21.64
2023-04-30T14:20:18.617Z,21.63
2023-04-30T14:22:45.491Z,21.63
2023-04-30T14:25:15.835Z,21.62
2023-04-30T14:27:42.453Z,21.61
2023-04-30T14:30:10.221Z,21.61
2023-04-30T14:32:37.726Z,21.61
2023-04-30T14:35:05.407Z,21.61
2023-04-30T14:37:32.055Z,21.60
2023-04-30T14:40:00.338Z,21.60
2023-04-30T14:42:26.929Z,21.58
2023-04-30T14:44:53.551Z,21.59
2023-04-30T14:47:23.473Z,21.58
2023-04-30T14:49:52.107Z,21.58
2023-04-30T14:52:21.744Z,21.58
2023-04-30T14:54:48.421Z,21.57
2023-04-30T14:57:15.162Z,21.57
2023-04-30T14:59:44.110Z,21.57
2023-04-30T15:02:11.413Z,21.57
2023-04-30T15:04:40.350Z,21.56
2023-04-30T15:07:07.044Z,21.56
2023-04-30T15:09:33.814Z,21.55
2023-04-30T15:12:00.467Z,21.55
2023-04-30T15:14:29.508Z,21.55
2023-04-30T15:16:56.550Z,21.52
2023-04-30T15:19:23.600Z,21.54
2023-04-30T15:21:50.617Z,21.54
2023-04-30T15:24:19.414Z,21.53
2023-04-30T15:26:46.037Z,21.53
2023-04-30T15:29:14.706Z,21.53
2023-04-30T15:31:42.049Z,21.53
2023-04-30T15:34:11.034Z,21.52
2023-04-30T15:36:37.706Z,21.52
2023-04-30T15:39:04.295Z,21.52
2023-04-30T15:41:31.021Z,21.52
2023-04-30T15:43:57.637Z,21.51
2023-04-30T15:46:27.127Z,21.51
2023-04-30T15:48:53.804Z,21.51
2023-04-30T15:51:21.050Z,21.48
2023-04-30T15:53:50.634Z,21.49
2023-04-30T15:56:18.552Z,21.48
2023-04-30T15:58:45.243Z,21.50
2023-04-30T16:01:12.324Z,21.50
2023-04-30T16:03:39.016Z,21.49
2023-04-30T16:06:05.857Z,21.50
2023-04-30T16:08:35.765Z,21.48
2023-04-30T16:11:03.816Z,21.47
2023-04-30T16:13:30.391Z,21.46
2023-04-30T16:15:57.041Z,21.46
2023-04-30T16:18:23.830Z,21.46
2023-04-30T16:20:51.882Z,21.46
2023-04-30T16:23:18.511Z,21.44
2023-04-30T16:25:45.435Z,21.46
2023-04-30T16:28:12.012Z,21.45
2023-04-30T16:30:38.632Z,21.44
2023-04-30T16:33:05.589Z,21.44
2023-04-30T16:35:34.481Z,21.43
2023-04-30T16:38:03.905Z,21.44
2023-04-30T16:40:31.121Z,21.43
2023-04-30T16:42:59.593Z,21.44
2023-04-30T16:45:32.857Z,21.43
2023-04-30T16:47:59.587Z,21.43
2023-04-30T16:50:26.931Z,21.42
2023-04-30T16:52:53.867Z,21.42
2023-04-30T16:55:20.583Z,21.41
2023-04-30T16:57:55.736Z,21.41
2023-04-30T17:00:22.657Z,21.40
2023-04-30T17:02:53.043Z,21.40
2023-04-30T17:05:20.300Z,21.41
2023-04-30T17:07:46.972Z,21.41
2023-04-30T17:10:13.697Z,21.40
2023-04-30T17:12:42.822Z,21.39
2023-04-30T17:15:09.728Z,21.39
2023-04-30T17:17:36.389Z,21.39
2023-04-30T17:20:03.598Z,21.38
2023-04-30T17:22:30.235Z,21.39
2023-04-30T17:24:59.395Z,21.37
2023-04-30T17:27:27.618Z,21.37
2023-04-30T17:29:56.048Z,21.37
2023-04-30T17:32:26.673Z,21.38
2023-04-30T17:34:53.471Z,21.38
2023-04-30T17:37:28.714Z,21.37
2023-04-30T17:39:58.495Z,21.37
2023-04-30T17:42:27.928Z,21.36
2023-04-30T17:44:54.500Z,21.37
2023-04-30T17:47:23.016Z,21.36
2023-04-30T17:49:49.908Z,21.37
2023-04-30T17:52:16.491Z,21.37
2023-04-30T17:54:46.295Z,21.38
2023-04-30T17:57:12.937Z,21.38
2023-04-30T17:59:39.958Z,21.37
2023-04-30T18:02:07.452Z,21.38
2023-04-30T18:04:34.391Z,21.38
2023-04-30T18:07:03.476Z,21.38
2023-04-30T18:09:32.199Z,21.38
2023-04-30T18:12:00.108Z,21.39
2023-04-30T18:14:26.907Z,21.38
2023-04-30T18:16:53.761Z,21.39
2023-04-30T18:19:20.738Z,21.38
2023-04-30T18:21:47.388Z,21.38
2023-04-30T18:24:13.991Z,21.38
2023-04-30T18:26:40.705Z,21.38
2023-04-30T18:29:07.962Z,21.38
2023-04-30T18:31:37.872Z,21.39
2023-04-30T18:34:04.730Z,21.38
2023-04-30T18:36:31.308Z,21.38
2023-04-30T18:38:57.952Z,21.38
2023-04-30T18:41:26.499Z,21.38
2023-04-30T18:43:53.092Z,21.37
2023-04-30T18:46:19.813Z,21.37
2023-04-30T18:48:49.062Z,21.36
2023-04-30T18:51:17.583Z,21.37
2023-04-30T18:53:45.394Z,21.37
2023-04-30T18:56:15.800Z,21.35
2023-04-30T18:58:44.529Z,21.37
2023-04-30T19:01:11.343Z,21.36
2023-04-30T19:03:41.442Z,21.35
2023-04-30T19:06:10.475Z,21.35
2023-04-30T19:08:37.166Z,21.36
2023-04-30T19:11:03.902Z,21.33
2023-04-30T19:13:31.665Z,21.34
2023-04-30T19:15:59.468Z,21.34
2023-04-30T19:18:26.158Z,21.33
2023-04-30T19:21:00.292Z,21.33
2023-04-30T19:23:36.585Z,21.32
2023-04-30T19:26:06.189Z,21.32
2023-04-30T19:28:35.352Z,21.32
2023-04-30T19:31:02.056Z,21.31
2023-04-30T19:33:31.067Z,21.32
2023-04-30T19:35:58.133Z,21.31
2023-04-30T19:38:24.746Z,21.31
2023-04-30T19:40:54.410Z,21.30
2023-04-30T19:43:24.329Z,21.31
2023-04-30T19:45:57.676Z,21.30
2023-04-30T19:48:26.254Z,21.30
2023-04-30T19:50:55.717Z,21.30
2023-04-30T19:53:22.477Z,21.29
2023-04-30T19:55:49.061Z,21.29
2023-04-30T19:58:15.803Z,21.28
2023-04-30T20:00:45.051Z,21.29
2023-04-30T20:03:15.372Z,21.28
2023-04-30T20:05:45.515Z,21.27
2023-04-30T20:08:12.480Z,21.28
2023-04-30T20:10:39.999Z,21.27
2023-04-30T20:13:06.790Z,21.27
2023-04-30T20:15:34.788Z,21.26
2023-04-30T20:18:08.346Z,21.26
2023-04-30T20:20:37.500Z,21.26
2023-04-30T20:23:13.893Z,21.25
2023-04-30T20:25:45.260Z,21.26
2023-04-30T20:28:13.138Z,21.25
2023-04-30T20:30:42.225Z,21.24
2023-04-30T20:33:12.363Z,21.24
2023-04-30T20:35:40.684Z,21.25
2023-04-30T20:38:07.997Z,21.24
2023-04-30T20:40:34.733Z,21.25
2023-04-30T20:43:04.336Z,21.24
2023-04-30T20:45:33.294Z,21.24
2023-04-30T20:48:02.585Z,21.23
2023-04-30T20:50:31.714Z,21.22
2023-04-30T20:52:58.418Z,21.23
2023-04-30T20:55:25.204Z,21.23
2023-04-30T20:57:57.909Z,21.22
2023-04-30T21:00:27.755Z,21.23
2023-04-30T21:02:57.023Z,21.22
2023-04-30T21:05:23.641Z,21.21
2023-04-30T21:07:52.689Z,21.21
2023-04-30T21:10:19.322Z,21.20
2023-04-30T21:12:45.944Z,21.20
2023-04-30T21:15:15.085Z,21.20
2023-04-30T21:17:41.742Z,21.20
2023-04-30T21:20:09.247Z,21.19
2023-04-30T21:22:36.074Z,21.19
2023-04-30T21:25:06.393Z,21.19
2023-04-30T21:27:35.198Z,21.18
2023-04-30T21:30:01.814Z,21.17
2023-04-30T21:32:34.634Z,21.16
2023-04-30T21:35:01.663Z,21.17
2023-04-30T21:37:28.547Z,21.16
2023-04-30T21:39:56.551Z,21.16
2023-04-30T21:42:23.432Z,21.16
2023-04-30T21:44:50.541Z,21.15
2023-04-30T21:47:20.322Z,21.14
2023-04-30T21:49:46.943Z,21.14
2023-04-30T21:52:13.619Z,21.14
2023-04-30T21:54:40.207Z,21.13
2023-04-30T21:57:07.334Z,21.13
2023-04-30T21:59:35.195Z,21.12
2023-04-30T22:02:13.055Z,21.12
2023-04-30T22:04:49.092Z,21.12
2023-04-30T22:07:15.875Z,21.11
2023-04-30T22:09:44.488Z,21.09
2023-04-30T22:12:15.854Z,21.09
2023-04-30T22:14:45.577Z,21.10
2023-04-30T22:17:12.732Z,21.09
2023-04-30T22:19:39.376Z,21.09
2023-04-30T22:22:06.230Z,21.07
2023-04-30T22:24:32.931Z,21.08
2023-04-30T22:27:06.328Z,21.07
2023-04-30T22:29:32.941Z,21.07
2023-04-30T22:32:00.470Z,21.05
2023-04-30T22:34:30.582Z,21.05
2023-04-30T22:36:57.161Z,21.05
2023-04-30T22:39:23.828Z,21.04
2023-04-30T22:41:50.809Z,21.03
2023-04-30T22:44:20.840Z,21.03
2023-04-30T22:46:49.326Z,21.02
2023-04-30T22:49:29.974Z,21.02
2023-04-30T22:51:58.095Z,21.02
2023-04-30T22:54:25.308Z,21.00
2023-04-30T22:56:52.359Z,21.00
2023-04-30T22:59:19.205Z,21.00
2023-04-30T23:01:51.490Z,20.99
2023-04-30T23:04:18.274Z,20.99
2023-04-30T23:06:45.173Z,20.98
2023-04-30T23:09:12.697Z,20.98
2023-04-30T23:11:39.280Z,20.97
2023-04-30T23:14:08.260Z,20.97
2023-04-30T23:16:36.091Z,20.96
2023-04-30T23:19:02.774Z,20.96
2023-04-30T23:21:30.648Z,20.96
2023-04-30T23:23:57.264Z,20.95
2023-04-30T23:26:24.400Z,20.95
2023-04-30T23:28:51.467Z,20.94
2023-04-30T23:31:18.247Z,20.92
2023-04-30T23:33:49.302Z,20.93
2023-04-30T23:36:15.954Z,20.93
2023-04-30T23:38:42.966Z,20.91
2023-04-30T23:41:13.806Z,20.92
2023-04-30T23:43:40.971Z,20.91
2023-04-30T23:46:09.926Z,20.90
2023-04-30T23:48:36.719Z,20.89
2023-04-30T23:51:04.595Z,20.89
2023-04-30T23:53:31.488Z,20.88
2023-04-30T23:56:01.123Z,20.88
2023-04-30T23:58:29.917Z,20.88
